sensor_id;sensor_type;location;lat;lon;timestamp;P1;durP1;ratioP1;P2;durP2;ratioP2
65459;SDS011;52058;49.822;6.754;2023-02-28T00:00:00;1.98;;;1.48;;
65459;SDS011;52058;49.822;6.754;2023-02-28T00:02:33;2.33;;;1.70;;
65459;SDS011;52058;49.822;6.754;2023-02-28T00:05:00;2.05;;;1.60;;
65459;SDS011;52058;49.822;6.754;2023-02-28T00:07:28;1.88;;;1.77;;
65459;SDS011;52058;49.822;6.754;2023-02-28T00:09:55;1.88;;;1.70;;
65459;SDS011;52058;49.822;6.754;2023-02-28T00:12:23;2.38;;;1.83;;
65459;SDS011;52058;49.822;6.754;2023-02-28T00:14:50;2.53;;;1.73;;
65459;SDS011;52058;49.822;6.754;2023-02-28T00:17:17;1.83;;;1.52;;
65459;SDS011;52058;49.822;6.754;2023-02-28T00:19:46;1.60;;;1.50;;
65459;SDS011;52058;49.822;6.754;2023-02-28T00:22:13;1.90;;;1.58;;
65459;SDS011;52058;49.822;6.754;2023-02-28T00:24:39;2.15;;;1.60;;
65459;SDS011;52058;49.822;6.754;2023-02-28T00:27:06;2.17;;;1.45;;
65459;SDS011;52058;49.822;6.754;2023-02-28T00:29:34;2.28;;;1.60;;
65459;SDS011;52058;49.822;6.754;2023-02-28T00:32:01;2.55;;;1.33;;
65459;SDS011;52058;49.822;6.754;2023-02-28T00:34:27;2.40;;;1.80;;
65459;SDS011;52058;49.822;6.754;2023-02-28T00:36:54;1.73;;;1.60;;
65459;SDS011;52058;49.822;6.754;2023-02-28T00:39:21;1.60;;;1.50;;
65459;SDS011;52058;49.822;6.754;2023-02-28T00:41:48;3.15;;;1.77;;
65459;SDS011;52058;49.822;6.754;2023-02-28T00:44:14;3.20;;;1.60;;
65459;SDS011;52058;49.822;6.754;2023-02-28T00:46:42;2.63;;;1.70;;
65459;SDS011;52058;49.822;6.754;2023-02-28T00:49:09;2.00;;;1.55;;
65459;SDS011;52058;49.822;6.754;2023-02-28T00:51:35;2.10;;;1.60;;
65459;SDS011;52058;49.822;6.754;2023-02-28T00:54:02;2.33;;;1.80;;
65459;SDS011;52058;49.822;6.754;2023-02-28T00:56:29;1.98;;;1.40;;
65459;SDS011;52058;49.822;6.754;2023-02-28T00:58:56;3.22;;;1.67;;
65459;SDS011;52058;49.822;6.754;2023-02-28T01:01:22;3.10;;;1.73;;
65459;SDS011;52058;49.822;6.754;2023-02-28T01:03:50;2.67;;;1.52;;
65459;SDS011;52058;49.822;6.754;2023-02-28T01:06:17;3.05;;;1.73;;
65459;SDS011;52058;49.822;6.754;2023-02-28T01:08:43;3.92;;;1.80;;
65459;SDS011;52058;49.822;6.754;2023-02-28T01:11:10;1.98;;;1.50;;
65459;SDS011;52058;49.822;6.754;2023-02-28T01:13:38;2.97;;;1.60;;
65459;SDS011;52058;49.822;6.754;2023-02-28T01:16:05;2.70;;;2.03;;
65459;SDS011;52058;49.822;6.754;2023-02-28T01:18:32;1.75;;;1.60;;
65459;SDS011;52058;49.822;6.754;2023-02-28T01:21:04;2.20;;;1.73;;
65459;SDS011;52058;49.822;6.754;2023-02-28T01:23:31;1.83;;;1.65;;
65459;SDS011;52058;49.822;6.754;2023-02-28T01:26:01;2.05;;;1.70;;
65459;SDS011;52058;49.822;6.754;2023-02-28T01:28:30;2.38;;;2.05;;
65459;SDS011;52058;49.822;6.754;2023-02-28T01:30:57;3.30;;;1.98;;
65459;SDS011;52058;49.822;6.754;2023-02-28T01:33:23;1.95;;;1.50;;
65459;SDS011;52058;49.822;6.754;2023-02-28T01:35:56;1.83;;;1.65;;
65459;SDS011;52058;49.822;6.754;2023-02-28T01:38:25;3.40;;;2.17;;
65459;SDS011;52058;49.822;6.754;2023-02-28T01:40:52;3.22;;;1.88;;
65459;SDS011;52058;49.822;6.754;2023-02-28T01:43:20;2.15;;;1.70;;
65459;SDS011;52058;49.822;6.754;2023-02-28T01:45:49;2.30;;;1.60;;
65459;SDS011;52058;49.822;6.754;2023-02-28T01:48:16;2.67;;;1.60;;
65459;SDS011;52058;49.822;6.754;2023-02-28T01:50:45;2.40;;;1.92;;
65459;SDS011;52058;49.822;6.754;2023-02-28T01:53:14;2.70;;;2.25;;
65459;SDS011;52058;49.822;6.754;2023-02-28T01:55:46;3.28;;;2.10;;
65459;SDS011;52058;49.822;6.754;2023-02-28T01:58:17;2.25;;;1.92;;
65459;SDS011;52058;49.822;6.754;2023-02-28T02:00:43;2.60;;;1.80;;
65459;SDS011;52058;49.822;6.754;2023-02-28T02:03:12;3.22;;;2.00;;
65459;SDS011;52058;49.822;6.754;2023-02-28T02:05:41;4.25;;;2.17;;
65459;SDS011;52058;49.822;6.754;2023-02-28T02:08:13;3.58;;;1.95;;
65459;SDS011;52058;49.822;6.754;2023-02-28T02:10:43;4.97;;;2.10;;
65459;SDS011;52058;49.822;6.754;2023-02-28T02:13:19;2.72;;;2.25;;
65459;SDS011;52058;49.822;6.754;2023-02-28T02:15:57;2.42;;;2.00;;
65459;SDS011;52058;49.822;6.754;2023-02-28T02:18:35;2.15;;;1.95;;
65459;SDS011;52058;49.822;6.754;2023-02-28T02:24:13;3.10;;;1.90;;
65459;SDS011;52058;49.822;6.754;2023-02-28T02:27:15;2.65;;;1.83;;
65459;SDS011;52058;49.822;6.754;2023-02-28T02:32:58;2.42;;;2.22;;
65459;SDS011;52058;49.822;6.754;2023-02-28T02:35:41;2.38;;;1.67;;
65459;SDS011;52058;49.822;6.754;2023-02-28T02:38:14;2.17;;;1.98;;
65459;SDS011;52058;49.822;6.754;2023-02-28T02:40:47;3.05;;;1.88;;
65459;SDS011;52058;49.822;6.754;2023-02-28T02:43:22;2.72;;;2.15;;
65459;SDS011;52058;49.822;6.754;2023-02-28T02:45:54;4.40;;;2.13;;
65459;SDS011;52058;49.822;6.754;2023-02-28T02:48:24;2.58;;;2.10;;
65459;SDS011;52058;49.822;6.754;2023-02-28T02:50:54;2.50;;;1.98;;
65459;SDS011;52058;49.822;6.754;2023-02-28T02:53:24;2.53;;;1.88;;
65459;SDS011;52058;49.822;6.754;2023-02-28T02:55:54;3.22;;;1.98;;
65459;SDS011;52058;49.822;6.754;2023-02-28T02:58:24;2.78;;;2.40;;
65459;SDS011;52058;49.822;6.754;2023-02-28T03:00:55;2.40;;;2.20;;
65459;SDS011;52058;49.822;6.754;2023-02-28T03:03:24;3.35;;;2.13;;
65459;SDS011;52058;49.822;6.754;2023-02-28T03:05:56;3.38;;;2.40;;
65459;SDS011;52058;49.822;6.754;2023-02-28T03:08:23;4.00;;;2.55;;
65459;SDS011;52058;49.822;6.754;2023-02-28T03:10:51;2.97;;;2.10;;
65459;SDS011;52058;49.822;6.754;2023-02-28T03:16:28;3.42;;;2.28;;
65459;SDS011;52058;49.822;6.754;2023-02-28T03:19:15;3.55;;;2.30;;
65459;SDS011;52058;49.822;6.754;2023-02-28T03:21:53;3.13;;;2.28;;
65459;SDS011;52058;49.822;6.754;2023-02-28T03:24:30;2.92;;;2.42;;
65459;SDS011;52058;49.822;6.754;2023-02-28T03:27:04;3.42;;;2.50;;
65459;SDS011;52058;49.822;6.754;2023-02-28T03:29:34;3.70;;;2.22;;
65459;SDS011;52058;49.822;6.754;2023-02-28T03:32:04;3.97;;;2.47;;
65459;SDS011;52058;49.822;6.754;2023-02-28T03:34:39;3.58;;;2.42;;
65459;SDS011;52058;49.822;6.754;2023-02-28T03:39:43;3.17;;;2.28;;
65459;SDS011;52058;49.822;6.754;2023-02-28T03:42:14;3.67;;;2.33;;
65459;SDS011;52058;49.822;6.754;2023-02-28T03:44:44;4.95;;;2.50;;
65459;SDS011;52058;49.822;6.754;2023-02-28T03:47:14;3.45;;;2.55;;
65459;SDS011;52058;49.822;6.754;2023-02-28T03:49:44;3.63;;;2.45;;
65459;SDS011;52058;49.822;6.754;2023-02-28T03:52:16;5.57;;;2.70;;
65459;SDS011;52058;49.822;6.754;2023-02-28T03:54:47;3.78;;;2.83;;
65459;SDS011;52058;49.822;6.754;2023-02-28T03:57:18;4.82;;;2.80;;
65459;SDS011;52058;49.822;6.754;2023-02-28T03:59:53;3.45;;;2.80;;
65459;SDS011;52058;49.822;6.754;2023-02-28T04:02:22;6.10;;;2.63;;
65459;SDS011;52058;49.822;6.754;2023-02-28T04:04:48;3.78;;;2.45;;
65459;SDS011;52058;49.822;6.754;2023-02-28T04:07:18;4.60;;;2.67;;
65459;SDS011;52058;49.822;6.754;2023-02-28T04:09:44;6.28;;;3.22;;
65459;SDS011;52058;49.822;6.754;2023-02-28T04:12:11;7.03;;;3.20;;
65459;SDS011;52058;49.822;6.754;2023-02-28T04:14:37;5.68;;;3.28;;
65459;SDS011;52058;49.822;6.754;2023-02-28T04:17:04;5.38;;;3.38;;
65459;SDS011;52058;49.822;6.754;2023-02-28T04:19:31;4.55;;;3.28;;
65459;SDS011;52058;49.822;6.754;2023-02-28T04:21:57;5.28;;;3.58;;
65459;SDS011;52058;49.822;6.754;2023-02-28T04:24:26;6.20;;;3.97;;
65459;SDS011;52058;49.822;6.754;2023-02-28T04:26:54;5.53;;;3.45;;
65459;SDS011;52058;49.822;6.754;2023-02-28T04:29:23;6.63;;;3.83;;
65459;SDS011;52058;49.822;6.754;2023-02-28T04:31:51;5.13;;;3.55;;
65459;SDS011;52058;49.822;6.754;2023-02-28T04:34:18;5.28;;;3.63;;
65459;SDS011;52058;49.822;6.754;2023-02-28T04:36:46;5.95;;;4.15;;
65459;SDS011;52058;49.822;6.754;2023-02-28T04:39:14;6.07;;;3.83;;
65459;SDS011;52058;49.822;6.754;2023-02-28T04:41:42;5.38;;;3.67;;
65459;SDS011;52058;49.822;6.754;2023-02-28T04:44:08;5.72;;;3.72;;
65459;SDS011;52058;49.822;6.754;2023-02-28T04:46:35;8.00;;;4.55;;
65459;SDS011;52058;49.822;6.754;2023-02-28T04:49:01;6.00;;;3.85;;
65459;SDS011;52058;49.822;6.754;2023-02-28T04:51:28;6.68;;;4.32;;
65459;SDS011;52058;49.822;6.754;2023-02-28T04:53:54;7.78;;;4.00;;
65459;SDS011;52058;49.822;6.754;2023-02-28T04:56:21;8.68;;;4.97;;
65459;SDS011;52058;49.822;6.754;2023-02-28T04:58:49;10.02;;;4.32;;
65459;SDS011;52058;49.822;6.754;2023-02-28T05:01:19;9.48;;;4.93;;
65459;SDS011;52058;49.822;6.754;2023-02-28T05:03:48;10.30;;;4.38;;
65459;SDS011;52058;49.822;6.754;2023-02-28T05:06:15;6.50;;;4.10;;
65459;SDS011;52058;49.822;6.754;2023-02-28T05:08:42;11.77;;;4.35;;
65459;SDS011;52058;49.822;6.754;2023-02-28T05:11:12;8.80;;;5.15;;
65459;SDS011;52058;49.822;6.754;2023-02-28T05:13:41;8.02;;;4.72;;
65459;SDS011;52058;49.822;6.754;2023-02-28T05:16:09;12.10;;;5.13;;
65459;SDS011;52058;49.822;6.754;2023-02-28T05:18:35;9.25;;;4.50;;
65459;SDS011;52058;49.822;6.754;2023-02-28T05:21:02;6.68;;;4.43;;
65459;SDS011;52058;49.822;6.754;2023-02-28T05:23:29;8.68;;;4.90;;
65459;SDS011;52058;49.822;6.754;2023-02-28T05:25:55;8.75;;;5.60;;
65459;SDS011;52058;49.822;6.754;2023-02-28T05:28:22;7.47;;;4.13;;
65459;SDS011;52058;49.822;6.754;2023-02-28T05:30:49;9.02;;;4.70;;
65459;SDS011;52058;49.822;6.754;2023-02-28T05:33:17;8.30;;;5.10;;
65459;SDS011;52058;49.822;6.754;2023-02-28T05:35:43;9.23;;;5.22;;
65459;SDS011;52058;49.822;6.754;2023-02-28T05:38:10;9.77;;;5.47;;
65459;SDS011;52058;49.822;6.754;2023-02-28T05:40:37;9.30;;;4.85;;
65459;SDS011;52058;49.822;6.754;2023-02-28T05:43:04;8.75;;;5.53;;
65459;SDS011;52058;49.822;6.754;2023-02-28T05:45:31;7.82;;;4.95;;
65459;SDS011;52058;49.822;6.754;2023-02-28T05:47:57;10.07;;;5.28;;
65459;SDS011;52058;49.822;6.754;2023-02-28T05:50:25;9.65;;;5.65;;
65459;SDS011;52058;49.822;6.754;2023-02-28T05:52:52;10.85;;;5.50;;
65459;SDS011;52058;49.822;6.754;2023-02-28T05:55:19;7.93;;;5.28;;
65459;SDS011;52058;49.822;6.754;2023-02-28T05:57:45;11.73;;;5.50;;
65459;SDS011;52058;49.822;6.754;2023-02-28T06:00:12;10.15;;;5.28;;
65459;SDS011;52058;49.822;6.754;2023-02-28T06:02:40;9.77;;;5.32;;
65459;SDS011;52058;49.822;6.754;2023-02-28T06:05:08;10.73;;;5.68;;
65459;SDS011;52058;49.822;6.754;2023-02-28T06:07:40;8.90;;;5.50;;
65459;SDS011;52058;49.822;6.754;2023-02-28T06:10:07;9.57;;;5.40;;
65459;SDS011;52058;49.822;6.754;2023-02-28T06:12:34;8.43;;;5.30;;
65459;SDS011;52058;49.822;6.754;2023-02-28T06:15:01;7.22;;;5.05;;
65459;SDS011;52058;49.822;6.754;2023-02-28T06:17:28;9.70;;;5.22;;
65459;SDS011;52058;49.822;6.754;2023-02-28T06:19:54;10.98;;;5.22;;
65459;SDS011;52058;49.822;6.754;2023-02-28T06:22:21;10.95;;;5.93;;
65459;SDS011;52058;49.822;6.754;2023-02-28T06:24:49;10.65;;;5.15;;
65459;SDS011;52058;49.822;6.754;2023-02-28T06:27:15;9.38;;;5.18;;
65459;SDS011;52058;49.822;6.754;2023-02-28T06:29:42;11.15;;;5.30;;
65459;SDS011;52058;49.822;6.754;2023-02-28T06:32:09;13.27;;;6.55;;
65459;SDS011;52058;49.822;6.754;2023-02-28T06:34:35;13.18;;;6.75;;
65459;SDS011;52058;49.822;6.754;2023-02-28T06:37:02;15.23;;;7.43;;
65459;SDS011;52058;49.822;6.754;2023-02-28T06:39:29;11.88;;;6.93;;
65459;SDS011;52058;49.822;6.754;2023-02-28T06:41:57;10.30;;;6.35;;
65459;SDS011;52058;49.822;6.754;2023-02-28T06:44:23;12.85;;;7.03;;
65459;SDS011;52058;49.822;6.754;2023-02-28T06:46:50;10.00;;;6.03;;
65459;SDS011;52058;49.822;6.754;2023-02-28T06:49:17;14.07;;;8.13;;
65459;SDS011;52058;49.822;6.754;2023-02-28T06:51:44;20.75;;;8.52;;
65459;SDS011;52058;49.822;6.754;2023-02-28T06:54:11;19.08;;;8.18;;
65459;SDS011;52058;49.822;6.754;2023-02-28T06:56:38;14.18;;;6.78;;
65459;SDS011;52058;49.822;6.754;2023-02-28T06:59:06;18.08;;;7.22;;
65459;SDS011;52058;49.822;6.754;2023-02-28T07:01:33;16.27;;;7.63;;
65459;SDS011;52058;49.822;6.754;2023-02-28T07:03:59;11.52;;;6.53;;
65459;SDS011;52058;49.822;6.754;2023-02-28T07:06:26;13.15;;;6.40;;
65459;SDS011;52058;49.822;6.754;2023-02-28T07:08:53;13.68;;;7.07;;
65459;SDS011;52058;49.822;6.754;2023-02-28T07:11:20;17.98;;;8.05;;
65459;SDS011;52058;49.822;6.754;2023-02-28T07:13:50;15.30;;;7.55;;
65459;SDS011;52058;49.822;6.754;2023-02-28T07:16:18;18.58;;;8.13;;
65459;SDS011;52058;49.822;6.754;2023-02-28T07:18:45;16.15;;;7.78;;
65459;SDS011;52058;49.822;6.754;2023-02-28T07:21:11;15.90;;;7.63;;
65459;SDS011;52058;49.822;6.754;2023-02-28T07:23:38;12.40;;;6.18;;
65459;SDS011;52058;49.822;6.754;2023-02-28T07:26:05;12.38;;;6.30;;
65459;SDS011;52058;49.822;6.754;2023-02-28T07:28:32;8.95;;;5.93;;
65459;SDS011;52058;49.822;6.754;2023-02-28T07:31:02;9.00;;;5.88;;
65459;SDS011;52058;49.822;6.754;2023-02-28T07:33:31;13.15;;;5.93;;
65459;SDS011;52058;49.822;6.754;2023-02-28T07:36:02;8.88;;;5.75;;
65459;SDS011;52058;49.822;6.754;2023-02-28T07:38:29;9.63;;;5.78;;
65459;SDS011;52058;49.822;6.754;2023-02-28T07:40:56;10.50;;;6.03;;
65459;SDS011;52058;49.822;6.754;2023-02-28T07:43:23;11.25;;;5.13;;
65459;SDS011;52058;49.822;6.754;2023-02-28T07:45:49;10.85;;;5.50;;
65459;SDS011;52058;49.822;6.754;2023-02-28T07:48:16;7.70;;;4.90;;
65459;SDS011;52058;49.822;6.754;2023-02-28T07:50:44;10.52;;;5.32;;
65459;SDS011;52058;49.822;6.754;2023-02-28T07:53:13;8.27;;;5.63;;
65459;SDS011;52058;49.822;6.754;2023-02-28T07:55:39;9.40;;;5.65;;
65459;SDS011;52058;49.822;6.754;2023-02-28T07:58:06;9.15;;;5.32;;
65459;SDS011;52058;49.822;6.754;2023-02-28T08:00:32;10.05;;;5.43;;
65459;SDS011;52058;49.822;6.754;2023-02-28T08:02:59;9.23;;;4.78;;
65459;SDS011;52058;49.822;6.754;2023-02-28T08:05:25;6.45;;;4.75;;
65459;SDS011;52058;49.822;6.754;2023-02-28T08:07:53;8.40;;;5.20;;
65459;SDS011;52058;49.822;6.754;2023-02-28T08:10:20;10.15;;;5.10;;
65459;SDS011;52058;49.822;6.754;2023-02-28T08:12:46;7.50;;;5.32;;
65459;SDS011;52058;49.822;6.754;2023-02-28T08:15:13;7.57;;;4.53;;
65459;SDS011;52058;49.822;6.754;2023-02-28T08:17:39;8.95;;;4.20;;
65459;SDS011;52058;49.822;6.754;2023-02-28T08:20:07;6.85;;;4.20;;
65459;SDS011;52058;49.822;6.754;2023-02-28T08:22:35;7.93;;;4.50;;
65459;SDS011;52058;49.822;6.754;2023-02-28T08:25:03;7.28;;;4.15;;
65459;SDS011;52058;49.822;6.754;2023-02-28T08:27:32;5.78;;;4.22;;
65459;SDS011;52058;49.822;6.754;2023-02-28T08:29:58;8.25;;;4.40;;
65459;SDS011;52058;49.822;6.754;2023-02-28T08:32:25;5.75;;;4.10;;
65459;SDS011;52058;49.822;6.754;2023-02-28T08:34:51;6.10;;;3.83;;
65459;SDS011;52058;49.822;6.754;2023-02-28T08:37:18;5.82;;;3.90;;
65459;SDS011;52058;49.822;6.754;2023-02-28T08:39:45;7.22;;;3.97;;
65459;SDS011;52058;49.822;6.754;2023-02-28T08:42:13;6.18;;;3.33;;
65459;SDS011;52058;49.822;6.754;2023-02-28T08:44:39;6.97;;;4.00;;
65459;SDS011;52058;49.822;6.754;2023-02-28T08:47:06;7.10;;;3.97;;
65459;SDS011;52058;49.822;6.754;2023-02-28T08:49:33;6.40;;;3.58;;
65459;SDS011;52058;49.822;6.754;2023-02-28T08:51:59;5.30;;;3.55;;
65459;SDS011;52058;49.822;6.754;2023-02-28T08:54:26;6.93;;;3.40;;
65459;SDS011;52058;49.822;6.754;2023-02-28T08:56:55;6.63;;;3.40;;
65459;SDS011;52058;49.822;6.754;2023-02-28T08:59:23;4.70;;;3.53;;
65459;SDS011;52058;49.822;6.754;2023-02-28T09:01:50;5.35;;;3.53;;
65459;SDS011;52058;49.822;6.754;2023-02-28T09:04:16;6.10;;;3.80;;
65459;SDS011;52058;49.822;6.754;2023-02-28T09:06:43;5.05;;;3.38;;
65459;SDS011;52058;49.822;6.754;2023-02-28T09:09:10;3.78;;;3.40;;
65459;SDS011;52058;49.822;6.754;2023-02-28T09:11:36;5.35;;;3.40;;
65459;SDS011;52058;49.822;6.754;2023-02-28T09:14:03;4.57;;;3.10;;
65459;SDS011;52058;49.822;6.754;2023-02-28T09:16:32;5.88;;;3.30;;
65459;SDS011;52058;49.822;6.754;2023-02-28T09:18:59;4.65;;;3.03;;
65459;SDS011;52058;49.822;6.754;2023-02-28T09:21:25;4.72;;;3.13;;
65459;SDS011;52058;49.822;6.754;2023-02-28T09:23:52;4.97;;;3.08;;
65459;SDS011;52058;49.822;6.754;2023-02-28T09:26:20;4.95;;;3.20;;
65459;SDS011;52058;49.822;6.754;2023-02-28T09:28:48;5.32;;;3.42;;
65459;SDS011;52058;49.822;6.754;2023-02-28T09:31:16;7.60;;;3.28;;
65459;SDS011;52058;49.822;6.754;2023-02-28T09:33:48;6.00;;;3.10;;
65459;SDS011;52058;49.822;6.754;2023-02-28T09:36:15;6.90;;;3.08;;
65459;SDS011;52058;49.822;6.754;2023-02-28T09:38:41;9.55;;;3.60;;
65459;SDS011;52058;49.822;6.754;2023-02-28T09:41:12;5.57;;;3.20;;
65459;SDS011;52058;49.822;6.754;2023-02-28T09:43:41;5.00;;;2.95;;
65459;SDS011;52058;49.822;6.754;2023-02-28T09:46:14;3.42;;;2.90;;
65459;SDS011;52058;49.822;6.754;2023-02-28T09:48:53;5.55;;;3.00;;
65459;SDS011;52058;49.822;6.754;2023-02-28T09:51:30;3.33;;;2.65;;
65459;SDS011;52058;49.822;6.754;2023-02-28T09:54:04;4.88;;;2.88;;
65459;SDS011;52058;49.822;6.754;2023-02-28T09:56:32;4.38;;;2.70;;
65459;SDS011;52058;49.822;6.754;2023-02-28T09:59:04;4.25;;;2.90;;
65459;SDS011;52058;49.822;6.754;2023-02-28T10:01:42;4.95;;;3.20;;
65459;SDS011;52058;49.822;6.754;2023-02-28T10:04:16;4.50;;;2.95;;
65459;SDS011;52058;49.822;6.754;2023-02-28T10:06:59;4.47;;;3.00;;
65459;SDS011;52058;49.822;6.754;2023-02-28T10:09:30;4.30;;;2.83;;
65459;SDS011;52058;49.822;6.754;2023-02-28T10:12:00;3.97;;;2.45;;
65459;SDS011;52058;49.822;6.754;2023-02-28T10:14:31;4.28;;;2.42;;
65459;SDS011;52058;49.822;6.754;2023-02-28T10:17:01;3.85;;;2.63;;
65459;SDS011;52058;49.822;6.754;2023-02-28T10:19:33;4.22;;;2.58;;
65459;SDS011;52058;49.822;6.754;2023-02-28T10:22:08;4.85;;;2.53;;
65459;SDS011;52058;49.822;6.754;2023-02-28T10:24:38;3.95;;;2.55;;
65459;SDS011;52058;49.822;6.754;2023-02-28T10:27:12;4.13;;;2.55;;
65459;SDS011;52058;49.822;6.754;2023-02-28T10:29:40;3.78;;;2.83;;
65459;SDS011;52058;49.822;6.754;2023-02-28T10:32:10;6.68;;;2.95;;
65459;SDS011;52058;49.822;6.754;2023-02-28T10:34:43;9.18;;;2.40;;
65459;SDS011;52058;49.822;6.754;2023-02-28T10:37:09;4.28;;;2.83;;
65459;SDS011;52058;49.822;6.754;2023-02-28T10:39:38;4.03;;;3.13;;
65459;SDS011;52058;49.822;6.754;2023-02-28T10:42:18;4.70;;;2.90;;
65459;SDS011;52058;49.822;6.754;2023-02-28T10:44:46;3.60;;;3.03;;
65459;SDS011;52058;49.822;6.754;2023-02-28T10:47:14;4.93;;;2.70;;
65459;SDS011;52058;49.822;6.754;2023-02-28T10:49:48;4.25;;;2.75;;
65459;SDS011;52058;49.822;6.754;2023-02-28T10:52:32;4.45;;;2.88;;
65459;SDS011;52058;49.822;6.754;2023-02-28T10:55:14;4.13;;;3.13;;
65459;SDS011;52058;49.822;6.754;2023-02-28T10:57:45;4.75;;;2.97;;
65459;SDS011;52058;49.822;6.754;2023-02-28T11:00:14;4.43;;;3.20;;
65459;SDS011;52058;49.822;6.754;2023-02-28T11:02:42;4.22;;;2.90;;
65459;SDS011;52058;49.822;6.754;2023-02-28T11:05:27;4.63;;;3.00;;
65459;SDS011;52058;49.822;6.754;2023-02-28T11:07:56;5.07;;;3.17;;
65459;SDS011;52058;49.822;6.754;2023-02-28T11:10:26;4.85;;;3.28;;
65459;SDS011;52058;49.822;6.754;2023-02-28T11:12:55;4.88;;;3.08;;
65459;SDS011;52058;49.822;6.754;2023-02-28T11:15:24;4.07;;;2.78;;
65459;SDS011;52058;49.822;6.754;2023-02-28T11:17:54;5.20;;;3.38;;
65459;SDS011;52058;49.822;6.754;2023-02-28T11:20:23;4.28;;;2.72;;
65459;SDS011;52058;49.822;6.754;2023-02-28T11:22:52;10.90;;;4.68;;
65459;SDS011;52058;49.822;6.754;2023-02-28T11:25:22;4.53;;;3.30;;
65459;SDS011;52058;49.822;6.754;2023-02-28T11:27:51;4.93;;;3.40;;
65459;SDS011;52058;49.822;6.754;2023-02-28T11:33:23;4.28;;;3.10;;
65459;SDS011;52058;49.822;6.754;2023-02-28T11:35:53;4.93;;;3.50;;
65459;SDS011;52058;49.822;6.754;2023-02-28T11:38:26;5.32;;;3.30;;
65459;SDS011;52058;49.822;6.754;2023-02-28T11:40:58;4.03;;;3.30;;
65459;SDS011;52058;49.822;6.754;2023-02-28T11:43:38;3.83;;;2.90;;
65459;SDS011;52058;49.822;6.754;2023-02-28T11:46:23;4.05;;;3.00;;
65459;SDS011;52058;49.822;6.754;2023-02-28T11:48:58;3.67;;;3.03;;
65459;SDS011;52058;49.822;6.754;2023-02-28T11:51:33;4.80;;;3.17;;
65459;SDS011;52058;49.822;6.754;2023-02-28T11:54:07;5.13;;;3.33;;
65459;SDS011;52058;49.822;6.754;2023-02-28T11:56:52;4.22;;;3.53;;
65459;SDS011;52058;49.822;6.754;2023-02-28T12:02:23;4.25;;;3.45;;
65459;SDS011;52058;49.822;6.754;2023-02-28T12:04:59;5.43;;;3.15;;
65459;SDS011;52058;49.822;6.754;2023-02-28T12:07:40;3.70;;;3.03;;
65459;SDS011;52058;49.822;6.754;2023-02-28T12:10:20;4.97;;;3.60;;
65459;SDS011;52058;49.822;6.754;2023-02-28T12:12:52;4.25;;;3.10;;
65459;SDS011;52058;49.822;6.754;2023-02-28T12:15:36;5.25;;;3.30;;
65459;SDS011;52058;49.822;6.754;2023-02-28T12:18:28;4.45;;;3.00;;
65459;SDS011;52058;49.822;6.754;2023-02-28T12:21:08;4.10;;;2.95;;
65459;SDS011;52058;49.822;6.754;2023-02-28T12:23:47;5.45;;;3.03;;
65459;SDS011;52058;49.822;6.754;2023-02-28T12:26:26;5.37;;;3.03;;
65459;SDS011;52058;49.822;6.754;2023-02-28T12:29:02;8.10;;;2.97;;
65459;SDS011;52058;49.822;6.754;2023-02-28T12:31:37;4.05;;;2.63;;
65459;SDS011;52058;49.822;6.754;2023-02-28T12:34:08;3.80;;;3.00;;
65459;SDS011;52058;49.822;6.754;2023-02-28T12:36:38;3.88;;;2.70;;
65459;SDS011;52058;49.822;6.754;2023-02-28T12:39:08;4.40;;;3.05;;
65459;SDS011;52058;49.822;6.754;2023-02-28T12:41:41;3.75;;;3.13;;
65459;SDS011;52058;49.822;6.754;2023-02-28T12:44:12;6.25;;;3.15;;
65459;SDS011;52058;49.822;6.754;2023-02-28T12:46:45;2.92;;;2.65;;
65459;SDS011;52058;49.822;6.754;2023-02-28T12:49:16;3.67;;;2.70;;
65459;SDS011;52058;49.822;6.754;2023-02-28T12:51:47;4.38;;;2.83;;
65459;SDS011;52058;49.822;6.754;2023-02-28T12:54:16;6.50;;;3.22;;
65459;SDS011;52058;49.822;6.754;2023-02-28T12:56:49;3.60;;;3.27;;
65459;SDS011;52058;49.822;6.754;2023-02-28T12:59:23;6.00;;;3.00;;
65459;SDS011;52058;49.822;6.754;2023-02-28T13:05:13;5.20;;;3.45;;
65459;SDS011;52058;49.822;6.754;2023-02-28T13:08:23;4.88;;;3.42;;
65459;SDS011;52058;49.822;6.754;2023-02-28T13:11:14;4.28;;;3.03;;
65459;SDS011;52058;49.822;6.754;2023-02-28T13:13:57;4.95;;;3.08;;
65459;SDS011;52058;49.822;6.754;2023-02-28T13:16:25;4.10;;;3.15;;
65459;SDS011;52058;49.822;6.754;2023-02-28T13:18:51;5.28;;;3.28;;
65459;SDS011;52058;49.822;6.754;2023-02-28T13:21:22;3.60;;;2.55;;
65459;SDS011;52058;49.822;6.754;2023-02-28T13:23:57;5.72;;;2.75;;
65459;SDS011;52058;49.822;6.754;2023-02-28T13:29:33;4.70;;;2.85;;
65459;SDS011;52058;49.822;6.754;2023-02-28T13:32:27;5.20;;;3.65;;
65459;SDS011;52058;49.822;6.754;2023-02-28T13:43:59;5.68;;;3.58;;
65459;SDS011;52058;49.822;6.754;2023-02-28T13:46:28;4.47;;;3.00;;
65459;SDS011;52058;49.822;6.754;2023-02-28T13:48:56;7.55;;;3.55;;
65459;SDS011;52058;49.822;6.754;2023-02-28T13:54:29;5.65;;;4.03;;
65459;SDS011;52058;49.822;6.754;2023-02-28T13:57:09;6.95;;;3.38;;
65459;SDS011;52058;49.822;6.754;2023-02-28T13:59:48;9.98;;;3.22;;
65459;SDS011;52058;49.822;6.754;2023-02-28T14:02:36;4.80;;;3.45;;
65459;SDS011;52058;49.822;6.754;2023-02-28T14:05:15;6.22;;;3.58;;
65459;SDS011;52058;49.822;6.754;2023-02-28T14:07:45;5.72;;;3.15;;
65459;SDS011;52058;49.822;6.754;2023-02-28T14:10:21;5.68;;;3.60;;
65459;SDS011;52058;49.822;6.754;2023-02-28T14:12:55;4.30;;;3.40;;
65459;SDS011;52058;49.822;6.754;2023-02-28T14:15:27;4.00;;;3.33;;
65459;SDS011;52058;49.822;6.754;2023-02-28T14:18:02;5.03;;;3.55;;
65459;SDS011;52058;49.822;6.754;2023-02-28T14:20:32;4.30;;;3.45;;
65459;SDS011;52058;49.822;6.754;2023-02-28T14:23:02;3.70;;;3.28;;
65459;SDS011;52058;49.822;6.754;2023-02-28T14:25:36;4.40;;;3.30;;
65459;SDS011;52058;49.822;6.754;2023-02-28T14:28:10;5.60;;;3.97;;
65459;SDS011;52058;49.822;6.754;2023-02-28T14:30:56;4.10;;;3.70;;
65459;SDS011;52058;49.822;6.754;2023-02-28T14:33:34;5.38;;;3.40;;
65459;SDS011;52058;49.822;6.754;2023-02-28T14:36:13;3.97;;;3.55;;
65459;SDS011;52058;49.822;6.754;2023-02-28T14:38:45;4.25;;;3.55;;
65459;SDS011;52058;49.822;6.754;2023-02-28T14:41:16;5.07;;;3.55;;
65459;SDS011;52058;49.822;6.754;2023-02-28T14:43:48;10.30;;;4.05;;
65459;SDS011;52058;49.822;6.754;2023-02-28T14:46:19;5.78;;;3.80;;
65459;SDS011;52058;49.822;6.754;2023-02-28T14:48:48;4.72;;;3.35;;
65459;SDS011;52058;49.822;6.754;2023-02-28T14:51:19;5.03;;;3.45;;
65459;SDS011;52058;49.822;6.754;2023-02-28T14:53:48;6.05;;;3.75;;
65459;SDS011;52058;49.822;6.754;2023-02-28T14:56:22;3.67;;;3.03;;
65459;SDS011;52058;49.822;6.754;2023-02-28T14:58:51;3.83;;;3.00;;
65459;SDS011;52058;49.822;6.754;2023-02-28T15:01:19;4.20;;;3.35;;
65459;SDS011;52058;49.822;6.754;2023-02-28T15:03:49;4.72;;;3.80;;
65459;SDS011;52058;49.822;6.754;2023-02-28T15:06:23;5.85;;;3.88;;
65459;SDS011;52058;49.822;6.754;2023-02-28T15:11:40;4.53;;;3.28;;
65459;SDS011;52058;49.822;6.754;2023-02-28T15:14:12;7.35;;;3.83;;
65459;SDS011;52058;49.822;6.754;2023-02-28T15:16:42;5.10;;;3.60;;
65459;SDS011;52058;49.822;6.754;2023-02-28T15:19:13;3.45;;;3.05;;
65459;SDS011;52058;49.822;6.754;2023-02-28T15:21:43;4.07;;;3.53;;
65459;SDS011;52058;49.822;6.754;2023-02-28T15:24:13;7.65;;;4.30;;
65459;SDS011;52058;49.822;6.754;2023-02-28T15:26:49;6.25;;;5.20;;
65459;SDS011;52058;49.822;6.754;2023-02-28T15:29:20;4.53;;;3.58;;
65459;SDS011;52058;49.822;6.754;2023-02-28T15:31:49;5.25;;;4.00;;
65459;SDS011;52058;49.822;6.754;2023-02-28T15:34:25;7.32;;;3.83;;
65459;SDS011;52058;49.822;6.754;2023-02-28T15:36:55;4.63;;;3.63;;
65459;SDS011;52058;49.822;6.754;2023-02-28T15:39:22;5.72;;;3.70;;
65459;SDS011;52058;49.822;6.754;2023-02-28T15:41:51;8.20;;;5.88;;